McEntire Air National Guard, South Carolina
Current Conditions -  °F | °C
As of 11:58 PM on Monday 22 Dec 2014 (Local Time) from KMMT Reporting Station
Overcast Overcast  
Wind Chill: 38°   Ceiling: 300
Heat Index: 42°   Visibility: 7mi
Dew Point: 42°   Wind: 6mph
Humidity: 99%   Direction: 80°E
Pressure: 30"   Gusts: NA
Location:  33.9203°N, 80.6788°W
Report Text: KMMT 230458Z AUTO 08005KT 7SM OVC003 06/06 A3000 RMK AO2 RAB0415E0449DZB0402E0415B0449E0453 SLP163 P0001 T00560055 400720056
Loading
Personal Weather Stations






























Interactive Weather Map New forecast layout! Learn more

10-Day Weather Forecast

Advertisements
Track Severe Weather on mobile